Time;durP1;ratioP1;P1;durP2;ratioP2;P2;SDS_P1;SDS_P2;PMS_P1;PMS_P2;Temp;Humidity;BMP_temperature;BMP_pressure;BME280_temperature;BME280_humidity;BME280_pressure;Samples;Min_cycle;Max_cycle;Signal;HPM_P1;HPM_P2
2021/10/12 04:02:12;;;;;;;3.25;3.10;;;9.10;99.90;;;;;;5227369;23;20325;-75
2021/10/12 04:04:38;;;;;;;6.15;4.03;;;9.10;99.90;;;;;;4994502;28;20282;-73
2021/10/12 04:07:05;;;;;;;3.40;3.25;;;9.10;99.90;;;;;;4993885;28;20531;-73
2021/10/12 04:09:32;;;;;;;3.55;3.00;;;9.10;99.90;;;;;;4994322;28;20492;-73
2021/10/12 04:11:59;;;;;;;3.35;3.15;;;9.10;99.90;;;;;;4993610;28;20231;-73
2021/10/12 04:14:25;;;;;;;3.13;2.92;;;9.10;99.90;;;;;;4994016;28;20208;-74
2021/10/12 04:16:52;;;;;;;3.10;2.97;;;9.10;99.90;;;;;;4993879;28;20212;-74
2021/10/12 04:19:20;;;;;;;4.20;3.60;;;9.10;99.90;;;;;;4993931;28;20235;-73
2021/10/12 04:21:47;;;;;;;3.65;3.40;;;9.10;99.90;;;;;;4990919;28;20368;-73
2021/10/12 04:24:13;;;;;;;3.20;2.97;;;9.10;99.90;;;;;;4993952;28;20272;-73
2021/10/12 04:26:40;;;;;;;3.85;3.33;;;9.00;99.90;;;;;;4994033;28;20215;-73
2021/10/12 04:29:07;;;;;;;5.90;3.75;;;9.00;99.90;;;;;;4993910;28;20322;-74
2021/10/12 04:31:35;;;;;;;3.00;2.90;;;9.00;99.90;;;;;;4993321;28;20232;-73
2021/10/12 04:34:01;;;;;;;3.08;2.95;;;9.00;99.90;;;;;;4993562;28;20220;-74
2021/10/12 04:36:29;;;;;;;3.30;3.10;;;9.00;99.90;;;;;;4993823;28;20220;-74
2021/10/12 04:38:56;;;;;;;7.15;3.33;;;9.00;99.90;;;;;;4993529;28;20282;-74
2021/10/12 04:41:22;;;;;;;3.25;3.10;;;8.90;99.90;;;;;;4993566;28;20287;-73
2021/10/12 04:43:49;;;;;;;3.58;3.28;;;8.90;99.90;;;;;;4993113;28;20239;-73
2021/10/12 04:46:17;;;;;;;4.13;3.55;;;8.90;99.90;;;;;;4993374;28;20582;-73
2021/10/12 04:48:45;;;;;;;6.85;3.35;;;8.90;99.90;;;;;;4994079;28;20207;-73
2021/10/12 04:51:11;;;;;;;3.20;2.65;;;8.80;99.90;;;;;;4993926;28;20232;-74
2021/10/12 04:53:40;;;;;;;4.40;3.00;;;8.80;99.90;;;;;;4992621;28;20274;-73
2021/10/12 04:56:07;;;;;;;3.10;3.00;;;8.80;99.90;;;;;;4993221;28;20733;-75
2021/10/12 04:58:33;;;;;;;3.25;3.05;;;8.80;99.90;;;;;;4993193;28;20223;-73
2021/10/12 05:01:00;;;;;;;4.50;3.22;;;8.80;99.90;;;;;;4993019;28;20629;-73
2021/10/12 05:03:27;;;;;;;2.95;2.72;;;8.70;99.90;;;;;;4991105;28;20702;-73
2021/10/12 05:05:53;;;;;;;3.08;2.50;;;8.70;99.90;;;;;;4993371;28;20204;-74
2021/10/12 05:08:20;;;;;;;4.75;3.75;;;8.70;99.90;;;;;;4991648;28;20228;-74
2021/10/12 05:10:48;;;;;;;3.78;2.63;;;8.70;99.90;;;;;;4993134;28;20232;-74
2021/10/12 05:13:15;;;;;;;3.63;2.92;;;8.70;99.90;;;;;;4992903;28;20266;-73
2021/10/12 05:15:46;;;;;;;4.65;2.80;;;8.60;99.90;;;;;;4993848;28;20668;-74
2021/10/12 05:18:18;;;;;;;4.63;2.70;;;8.60;99.90;;;;;;4986882;28;20270;-73
2021/10/12 05:20:45;;;;;;;3.47;2.90;;;8.60;99.90;;;;;;4973699;28;20220;-72
2021/10/12 05:23:11;;;;;;;2.88;2.67;;;8.60;99.90;;;;;;4972632;28;20270;-72
2021/10/12 05:25:38;;;;;;;4.40;3.10;;;8.50;99.90;;;;;;4973192;28;20486;-73
2021/10/12 05:28:08;;;;;;;5.30;4.10;;;8.60;99.90;;;;;;4973523;28;20205;-73
2021/10/12 05:30:39;;;;;;;5.97;3.47;;;8.50;99.90;;;;;;4973620;28;20228;-73
2021/10/12 05:33:07;;;;;;;4.05;3.67;;;8.50;99.90;;;;;;4972991;28;20212;-73
2021/10/12 05:35:33;;;;;;;5.28;3.10;;;8.50;99.90;;;;;;4973452;28;20287;-72
2021/10/12 05:38:00;;;;;;;7.07;6.47;;;8.50;99.90;;;;;;4972410;28;20668;-73
2021/10/12 05:40:27;;;;;;;5.35;4.95;;;8.60;99.90;;;;;;4972973;28;20236;-72
2021/10/12 05:42:54;;;;;;;4.40;4.10;;;8.60;99.90;;;;;;4973098;28;20251;-74
2021/10/12 05:45:22;;;;;;;5.80;5.30;;;8.50;99.90;;;;;;4973203;28;20213;-72
2021/10/12 05:47:48;;;;;;;4.65;3.42;;;8.50;99.90;;;;;;4973222;28;20212;-74
2021/10/12 05:50:15;;;;;;;3.00;2.80;;;8.50;99.90;;;;;;4973021;28;20209;-74
2021/10/12 05:52:47;;;;;;;4.25;3.95;;;8.50;99.90;;;;;;4971956;28;20672;-74
2021/10/12 05:55:18;;;;;;;2.90;2.70;;;8.50;99.90;;;;;;4973559;28;20246;-73
2021/10/12 05:57:56;;;;;;;3.08;2.58;;;8.60;99.90;;;;;;4973171;28;20215;-74
2021/10/12 06:00:24;;;;;;;2.10;2.00;;;8.60;99.90;;;;;;4973254;28;20311;-75
2021/10/12 06:02:50;;;;;;;2.05;1.95;;;8.60;99.90;;;;;;4972859;28;20216;-75
2021/10/12 06:05:17;;;;;;;1.92;1.83;;;8.60;99.90;;;;;;4972914;28;20208;-74
2021/10/12 06:07:45;;;;;;;2.65;2.38;;;8.60;99.90;;;;;;4972056;28;20212;-74
2021/10/12 06:10:11;;;;;;;3.13;2.45;;;8.60;99.90;;;;;;4973145;28;20204;-74
2021/10/12 06:12:38;;;;;;;2.13;2.03;;;8.60;99.90;;;;;;4972782;28;20271;-74
2021/10/12 06:15:06;;;;;;;4.38;3.00;;;8.60;99.90;;;;;;4972982;28;20263;-74
2021/10/12 06:17:33;;;;;;;2.67;2.58;;;8.60;99.90;;;;;;4972979;28;20204;-74
2021/10/12 06:20:00;;;;;;;3.08;2.80;;;8.60;99.90;;;;;;4975029;28;20363;-73
2021/10/12 06:22:27;;;;;;;3.40;3.13;;;8.70;99.90;;;;;;4975177;28;20256;-73
2021/10/12 06:24:53;;;;;;;3.92;3.35;;;8.70;99.90;;;;;;4976531;28;20208;-72
2021/10/12 06:27:21;;;;;;;3.00;2.80;;;8.70;99.90;;;;;;4976852;28;20208;-72
2021/10/12 06:29:48;;;;;;;3.13;2.92;;;8.80;99.90;;;;;;4976543;28;20212;-73
2021/10/12 06:32:14;;;;;;;3.63;3.35;;;8.80;99.90;;;;;;4976197;28;20720;-74
2021/10/12 06:34:42;;;;;;;2.90;2.70;;;8.90;99.90;;;;;;4976242;28;20224;-73
2021/10/12 06:37:09;;;;;;;3.78;3.58;;;8.90;99.90;;;;;;4975719;28;20220;-73
2021/10/12 06:39:36;;;;;;;3.70;3.40;;;9.00;99.90;;;;;;4976491;28;20279;-73
2021/10/12 06:42:03;;;;;;;5.45;4.00;;;9.00;99.90;;;;;;4976158;28;20235;-74
2021/10/12 06:44:30;;;;;;;5.10;4.65;;;9.00;99.90;;;;;;4976114;28;20633;-73
2021/10/12 06:46:56;;;;;;;4.28;3.67;;;9.10;99.90;;;;;;4976306;28;20295;-73
2021/10/12 06:49:23;;;;;;;3.10;2.80;;;9.00;99.90;;;;;;4976346;28;20665;-73
2021/10/12 06:51:51;;;;;;;4.03;3.00;;;9.10;99.90;;;;;;4975448;28;20860;-73
2021/10/12 06:54:18;;;;;;;4.30;3.03;;;9.10;99.90;;;;;;4975974;28;20212;-73
2021/10/12 06:56:44;;;;;;;7.30;3.70;;;9.10;99.90;;;;;;4976279;28;20243;-73
2021/10/12 06:59:12;;;;;;;3.85;3.60;;;9.10;99.90;;;;;;4976176;28;20220;-73
2021/10/12 07:01:39;;;;;;;4.00;3.70;;;9.20;99.90;;;;;;4975728;28;20240;-73
2021/10/12 07:04:06;;;;;;;7.05;3.63;;;9.20;99.90;;;;;;4976051;28;20220;-73
2021/10/12 07:06:32;;;;;;;7.78;4.20;;;9.30;99.90;;;;;;4975323;28;20209;-73
2021/10/12 07:09:00;;;;;;;5.55;5.15;;;9.30;99.90;;;;;;4975916;28;20216;-73
2021/10/12 07:11:27;;;;;;;6.43;4.00;;;9.40;99.90;;;;;;4975908;28;20237;-73
2021/10/12 07:13:53;;;;;;;6.93;4.05;;;9.40;99.90;;;;;;4975677;28;20208;-73
2021/10/12 07:16:21;;;;;;;4.28;3.80;;;9.40;99.90;;;;;;4975915;28;20222;-72
2021/10/12 07:18:48;;;;;;;4.97;3.25;;;9.40;99.90;;;;;;4975989;28;20268;-72
2021/10/12 07:21:15;;;;;;;4.85;4.50;;;9.40;99.90;;;;;;4975351;28;20236;-73
2021/10/12 07:23:42;;;;;;;3.22;3.03;;;9.40;99.90;;;;;;4975043;28;20204;-72
2021/10/12 07:26:10;;;;;;;4.15;3.63;;;9.50;99.90;;;;;;4975846;28;20271;-73
2021/10/12 07:28:36;;;;;;;3.38;3.17;;;9.50;99.90;;;;;;4975461;28;20288;-73
2021/10/12 07:31:03;;;;;;;4.25;3.60;;;9.50;99.90;;;;;;4975459;28;20713;-73
2021/10/12 07:33:30;;;;;;;6.22;2.45;;;9.50;99.90;;;;;;4975114;28;20213;-73
2021/10/12 07:35:57;;;;;;;2.60;2.40;;;9.60;99.90;;;;;;4974694;28;20571;-74
2021/10/12 07:38:24;;;;;;;11.30;3.08;;;9.50;99.90;;;;;;4974462;28;20588;-74
2021/10/12 07:40:51;;;;;;;3.17;2.67;;;9.60;99.90;;;;;;4975380;28;20287;-74
2021/10/12 07:43:19;;;;;;;2.88;2.55;;;9.60;99.90;;;;;;4974970;28;20263;-73
2021/10/12 07:45:48;;;;;;;2.33;2.33;;;9.70;99.90;;;;;;4977726;28;20671;-74
2021/10/12 07:48:15;;;;;;;4.00;2.80;;;9.70;99.90;;;;;;4994281;28;20684;-72
2021/10/12 07:50:42;;;;;;;2.40;2.20;;;9.70;99.90;;;;;;4994597;28;20278;-74
2021/10/12 07:53:09;;;;;;;4.20;3.00;;;9.80;99.90;;;;;;4993348;28;20243;-74
2021/10/12 07:55:38;;;;;;;3.05;2.50;;;9.80;99.90;;;;;;4994299;28;20274;-74
2021/10/12 07:58:05;;;;;;;4.50;2.53;;;9.90;99.90;;;;;;4994313;28;20344;-75
2021/10/12 08:00:34;;;;;;;5.00;2.58;;;9.90;99.90;;;;;;4994471;28;20589;-75
2021/10/12 08:03:01;;;;;;;2.25;2.15;;;9.90;99.90;;;;;;4994189;28;20262;-74
2021/10/12 08:05:29;;;;;;;3.58;2.80;;;10.00;99.90;;;;;;4994694;28;20231;-75
2021/10/12 08:07:56;;;;;;;2.45;2.25;;;10.00;99.90;;;;;;4993309;28;20214;-72
2021/10/12 08:10:25;;;;;;;3.28;2.10;;;9.90;99.90;;;;;;4994014;28;20279;-72
2021/10/12 08:12:53;;;;;;;2.17;2.08;;;10.00;99.90;;;;;;4994404;28;20266;-71
2021/10/12 08:15:20;;;;;;;2.55;2.13;;;10.00;99.90;;;;;;4994277;28;20208;-71
2021/10/12 08:17:49;;;;;;;4.60;1.75;;;10.00;99.90;;;;;;4993857;28;20290;-71
2021/10/12 08:20:15;;;;;;;4.40;2.45;;;10.10;99.90;;;;;;4993874;28;20554;-72
2021/10/12 08:22:42;;;;;;;3.22;2.67;;;10.10;99.90;;;;;;4992678;28;20239;-72
2021/10/12 08:25:09;;;;;;;3.83;1.75;;;10.10;99.90;;;;;;4993722;28;20593;-72
2021/10/12 08:27:37;;;;;;;4.70;2.10;;;10.10;99.90;;;;;;4993603;28;20580;-72
2021/10/12 08:30:04;;;;;;;4.03;1.85;;;10.10;99.90;;;;;;4993747;28;20207;-74
2021/10/12 08:32:31;;;;;;;1.60;1.60;;;10.20;99.90;;;;;;4993353;28;20282;-74
2021/10/12 08:34:59;;;;;;;2.00;1.90;;;10.20;99.90;;;;;;4993886;28;20254;-74
2021/10/12 08:37:26;;;;;;;1.40;1.40;;;10.30;99.90;;;;;;4992734;28;20208;-73
2021/10/12 08:39:53;;;;;;;3.97;1.40;;;10.30;99.90;;;;;;4993951;28;20228;-74
2021/10/12 08:42:25;;;;;;;1.83;1.83;;;10.30;99.90;;;;;;4991593;28;20236;-74
2021/10/12 08:44:56;;;;;;;2.95;1.70;;;10.30;99.90;;;;;;4994074;28;20208;-74
2021/10/12 08:47:24;;;;;;;2.15;1.15;;;10.30;99.90;;;;;;4978181;28;20232;-73
2021/10/12 08:49:52;;;;;;;1.10;1.05;;;10.40;99.90;;;;;;4974291;28;20205;-72
2021/10/12 08:52:20;;;;;;;4.40;1.20;;;10.50;99.90;;;;;;4972970;28;20236;-73
2021/10/12 08:54:48;;;;;;;1.15;1.05;;;10.50;99.90;;;;;;4974388;28;20212;-73
2021/10/12 08:57:27;;;;;;;0.70;0.70;;;10.50;99.90;;;;;;4974456;28;20303;-72
2021/10/12 08:59:54;;;;;;;1.65;0.70;;;10.50;99.90;;;;;;4974096;28;20271;-72
2021/10/12 09:02:23;;;;;;;1.48;1.05;;;10.50;99.90;;;;;;4973412;28;20278;-72
2021/10/12 09:04:50;;;;;;;0.80;0.50;;;10.50;99.90;;;;;;4974388;28;20216;-73
2021/10/12 09:07:18;;;;;;;5.90;1.05;;;10.50;99.90;;;;;;4973477;28;20204;-73
2021/10/12 09:09:46;;;;;;;1.00;1.00;;;10.60;99.90;;;;;;4973906;28;20223;-74
2021/10/12 09:12:13;;;;;;;1.90;0.73;;;10.60;99.90;;;;;;4973028;28;20224;-74
2021/10/12 09:14:55;;;;;;;6.60;0.60;;;10.60;99.90;;;;;;4973383;28;20344;-74
2021/10/12 09:17:32;;;;;;;0.73;0.60;;;10.60;99.90;;;;;;4973487;28;20212;-71
2021/10/12 09:20:00;;;;;;;1.75;0.60;;;10.60;99.90;;;;;;4973368;28;20294;-72
2021/10/12 09:22:27;;;;;;;2.95;0.65;;;10.60;99.90;;;;;;4972710;28;20233;-71
2021/10/12 09:25:06;;;;;;;3.25;0.70;;;10.60;99.90;;;;;;4973336;28;20220;-71
2021/10/12 09:27:45;;;;;;;2.92;0.68;;;10.60;99.90;;;;;;4973268;28;20215;-72
2021/10/12 09:30:13;;;;;;;1.83;0.50;;;10.70;99.90;;;;;;4973829;28;20204;-72
2021/10/12 09:32:40;;;;;;;1.70;0.55;;;10.70;99.90;;;;;;4973746;28;20212;-72
2021/10/12 09:35:08;;;;;;;0.80;0.80;;;10.80;99.90;;;;;;4973258;28;20223;-72
2021/10/12 09:37:34;;;;;;;2.60;0.50;;;10.80;99.90;;;;;;4972897;28;20311;-71
2021/10/12 09:40:19;;;;;;;1.25;0.80;;;10.90;99.90;;;;;;4973558;28;20228;-71
2021/10/12 09:42:46;;;;;;;3.40;0.73;;;10.90;99.90;;;;;;4972785;28;20684;-71
2021/10/12 09:45:13;;;;;;;2.80;0.75;;;11.00;99.90;;;;;;4973202;28;20208;-71
2021/10/12 09:47:41;;;;;;;1.20;0.50;;;11.00;99.90;;;;;;4973033;28;20232;-71
2021/10/12 09:50:09;;;;;;;1.58;0.75;;;11.10;99.90;;;;;;4973306;28;20207;-72
2021/10/12 09:52:38;;;;;;;2.58;1.10;;;11.10;99.90;;;;;;4972526;28;20625;-71
2021/10/12 09:55:07;;;;;;;3.80;0.55;;;11.10;99.90;;;;;;4977263;28;20639;-71
2021/10/12 09:57:34;;;;;;;0.90;0.90;;;11.10;99.90;;;;;;4976884;28;20211;-71
2021/10/12 10:00:01;;;;;;;1.33;0.50;;;11.20;99.90;;;;;;4977015;28;20263;-71
2021/10/12 10:02:28;;;;;;;1.42;0.85;;;11.30;99.90;;;;;;4976573;28;20236;-71
2021/10/12 10:04:56;;;;;;;0.85;0.60;;;11.30;99.90;;;;;;4977250;28;20209;-72
2021/10/12 10:07:27;;;;;;;0.57;0.57;;;11.40;99.90;;;;;;4976048;28;20344;-71
2021/10/12 10:09:56;;;;;;;0.98;0.55;;;11.40;99.90;;;;;;4976902;28;20271;-71
2021/10/12 10:12:26;;;;;;;1.75;1.00;;;11.40;99.90;;;;;;4976568;28;20235;-71
2021/10/12 10:14:52;;;;;;;1.17;0.80;;;11.40;99.90;;;;;;4976596;28;20259;-70
2021/10/12 10:17:21;;;;;;;2.17;0.60;;;11.40;99.90;;;;;;4976302;28;20428;-70
2021/10/12 10:19:48;;;;;;;1.05;0.68;;;11.40;99.90;;;;;;4976564;28;20319;-71
2021/10/12 10:22:38;;;;;;;3.53;0.65;;;11.40;99.90;;;;;;4975717;28;20652;-74
2021/10/12 10:25:28;;;;;;;2.33;0.60;;;11.40;99.90;;;;;;4976462;28;20665;-72
2021/10/12 10:27:57;;;;;;;0.70;0.60;;;11.50;99.90;;;;;;4976711;28;20208;-72
2021/10/12 10:30:31;;;;;;;1.25;0.55;;;11.50;99.90;;;;;;4976537;28;20250;-72
2021/10/12 10:33:00;;;;;;;2.78;0.68;;;11.70;99.90;;;;;;4976333;28;20208;-72
2021/10/12 10:35:35;;;;;;;2.50;0.80;;;11.90;99.90;;;;;;4976375;28;20213;-73
2021/10/12 10:38:30;;;;;;;0.55;0.47;;;12.00;99.90;;;;;;4975476;28;20614;-73
2021/10/12 10:41:27;;;;;;;4.43;0.50;;;12.10;99.90;;;;;;4976428;28;20367;-72
2021/10/12 10:44:00;;;;;;;2.05;0.50;;;12.20;99.90;;;;;;4916304;29;20631;-73
2021/10/12 10:46:40;;;;;;;1.38;0.70;;;12.30;99.90;;;;;;4964195;28;20215;-72
2021/10/12 10:49:10;;;;;;;0.60;0.60;;;12.20;99.90;;;;;;4976428;28;20217;-73
2021/10/12 10:51:55;;;;;;;1.75;0.65;;;12.20;99.90;;;;;;4975327;28;20224;-72
2021/10/12 10:55:04;;;;;;;0.73;0.50;;;12.20;99.90;;;;;;4975866;28;20212;-73
2021/10/12 10:57:31;;;;;;;0.80;0.80;;;12.20;99.90;;;;;;4976207;28;20244;-72
2021/10/12 11:00:38;;;;;;;1.05;0.50;;;12.20;99.90;;;;;;4976065;28;20572;-73
2021/10/12 11:03:06;;;;;;;1.50;0.75;;;12.30;99.90;;;;;;4975541;28;20216;-72
2021/10/12 11:05:35;;;;;;;1.00;0.82;;;12.30;99.90;;;;;;4975160;28;20227;-71
2021/10/12 11:08:09;;;;;;;1.80;0.70;;;12.30;99.90;;;;;;4975029;28;20212;-71
2021/10/12 11:10:36;;;;;;;1.58;0.50;;;12.30;99.90;;;;;;4976861;28;20223;-74
2021/10/12 11:13:03;;;;;;;4.57;0.90;;;12.40;99.90;;;;;;4976748;28;20212;-72
2021/10/12 11:15:29;;;;;;;2.30;1.00;;;12.40;99.90;;;;;;4977134;28;20538;-73
2021/10/12 11:18:08;;;;;;;2.35;0.65;;;12.50;99.90;;;;;;4975301;28;20542;-73
2021/10/12 11:20:41;;;;;;;1.52;0.50;;;12.50;99.90;;;;;;4975933;28;20304;-73
2021/10/12 11:23:09;;;;;;;2.30;1.20;;;12.60;99.90;;;;;;4975148;28;20256;-73
2021/10/12 11:25:35;;;;;;;0.93;0.80;;;12.60;99.90;;;;;;4975852;28;20495;-74
2021/10/12 11:28:10;;;;;;;1.70;0.70;;;12.70;99.90;;;;;;4975218;28;20479;-74
2021/10/12 11:30:39;;;;;;;1.20;0.50;;;12.80;99.90;;;;;;4975635;28;20479;-74
2021/10/12 11:33:07;;;;;;;2.90;0.97;;;12.90;99.90;;;;;;4974971;28;20464;-74
2021/10/12 11:35:36;;;;;;;2.10;0.90;;;12.90;99.90;;;;;;4975559;28;20963;-74
2021/10/12 11:38:05;;;;;;;2.20;0.73;;;12.80;99.90;;;;;;4973344;28;20527;-74
2021/10/12 11:40:32;;;;;;;3.13;0.90;;;12.80;99.90;;;;;;4975336;28;20578;-72
2021/10/12 11:43:00;;;;;;;0.97;0.50;;;12.80;99.90;;;;;;4974784;28;20468;-72
2021/10/12 11:45:27;;;;;;;1.97;0.80;;;12.80;99.90;;;;;;4975334;28;20833;-72
2021/10/12 11:47:54;;;;;;;0.93;0.93;;;12.80;99.90;;;;;;4975052;28;20921;-73
2021/10/12 11:50:22;;;;;;;1.03;0.83;;;12.80;99.90;;;;;;4975019;28;20484;-73
2021/10/12 11:52:50;;;;;;;0.60;0.60;;;12.70;99.90;;;;;;4974191;28;20464;-74
2021/10/12 11:55:22;;;;;;;3.10;0.90;;;12.90;99.90;;;;;;4975001;28;20925;-73
2021/10/12 11:57:49;;;;;;;0.70;0.70;;;13.00;99.90;;;;;;4974814;28;20633;-73
2021/10/12 12:00:18;;;;;;;2.93;0.70;;;13.20;99.90;;;;;;4974712;28;20467;-72
2021/10/12 12:02:45;;;;;;;0.77;0.77;;;13.30;99.90;;;;;;4974544;28;20534;-72
2021/10/12 12:05:13;;;;;;;0.93;0.70;;;13.30;99.90;;;;;;4975141;28;20461;-72
2021/10/12 12:07:44;;;;;;;0.63;0.60;;;13.40;99.90;;;;;;4973896;28;20471;-75
2021/10/12 12:10:11;;;;;;;1.37;1.00;;;13.50;99.90;;;;;;4974998;28;20931;-73
2021/10/12 12:12:39;;;;;;;0.73;0.73;;;13.40;99.90;;;;;;4974392;28;20847;-72
2021/10/12 12:15:08;;;;;;;2.10;0.60;;;13.30;99.90;;;;;;4975031;28;20538;-72
2021/10/12 12:17:36;;;;;;;1.90;1.00;;;13.40;99.90;;;;;;4973277;28;20948;-73
2021/10/12 12:20:13;;;;;;;1.47;0.60;;;13.40;99.90;;;;;;4974453;28;20520;-72
2021/10/12 12:22:43;;;;;;;1.23;0.60;;;13.30;99.90;;;;;;4973928;28;20471;-72
2021/10/12 12:25:11;;;;;;;2.07;0.90;;;13.30;99.90;;;;;;4974354;28;20526;-71
2021/10/12 12:27:54;;;;;;;9.73;0.90;;;13.30;99.90;;;;;;4974452;28;20893;-71
2021/10/12 12:30:31;;;;;;;0.83;0.83;;;13.30;99.90;;;;;;4974598;28;20464;-71
2021/10/12 12:32:59;;;;;;;2.30;0.80;;;13.40;99.90;;;;;;4974118;28;20464;-72
2021/10/12 12:35:26;;;;;;;0.70;0.70;;;13.30;99.90;;;;;;4974851;28;20514;-72
2021/10/12 12:38:02;;;;;;;0.63;0.63;;;13.40;99.90;;;;;;4973588;28;20459;-72
2021/10/12 12:40:30;;;;;;;4.93;0.90;;;13.40;99.90;;;;;;4974490;28;20487;-71
2021/10/12 12:42:58;;;;;;;0.60;0.60;;;13.40;99.90;;;;;;4973728;28;20487;-72
2021/10/12 12:45:26;;;;;;;4.90;0.90;;;13.40;99.90;;;;;;4974337;28;20869;-72
2021/10/12 12:47:54;;;;;;;0.40;0.40;;;13.40;99.90;;;;;;4974113;28;20893;-71
2021/10/12 12:50:29;;;;;;;1.23;0.63;;;13.30;99.90;;;;;;4974111;28;20467;-71
2021/10/12 12:52:57;;;;;;;1.60;0.90;;;13.30;99.90;;;;;;4973223;28;20462;-72
2021/10/12 12:55:33;;;;;;;1.07;0.70;;;13.30;99.90;;;;;;4973849;28;20479;-71
2021/10/12 12:58:00;;;;;;;2.30;0.60;;;13.30;99.90;;;;;;4990367;28;20534;-71
2021/10/12 13:00:27;;;;;;;0.53;0.53;;;13.40;99.90;;;;;;4993246;28;20466;-71
2021/10/12 13:02:55;;;;;;;1.07;0.73;;;13.40;99.90;;;;;;4993202;28;20577;-71
2021/10/12 13:05:22;;;;;;;3.60;0.60;;;13.40;99.90;;;;;;4993383;28;20478;-71
2021/10/12 13:07:49;;;;;;;1.53;0.50;;;13.50;99.90;;;;;;4992749;28;20473;-72
2021/10/12 13:10:16;;;;;;;0.53;0.53;;;13.50;99.90;;;;;;4993105;28;20462;-71
2021/10/12 13:12:44;;;;;;;0.87;0.70;;;13.50;99.90;;;;;;4993159;28;20467;-71
2021/10/12 13:15:12;;;;;;;0.93;0.70;;;13.50;99.90;;;;;;4993137;28;20473;-71
2021/10/12 13:17:39;;;;;;;2.10;0.60;;;13.60;99.90;;;;;;4993005;28;20466;-71
2021/10/12 13:20:07;;;;;;;2.00;0.90;;;13.70;99.90;;;;;;4992872;28;20479;-73
2021/10/12 13:22:34;;;;;;;2.20;0.60;;;13.70;99.90;;;;;;4992046;28;20483;-72
2021/10/12 13:25:01;;;;;;;2.83;0.70;;;13.60;99.90;;;;;;4992857;28;20471;-72
2021/10/12 13:27:28;;;;;;;1.70;0.70;;;13.50;99.90;;;;;;4992962;28;20474;-72
2021/10/12 13:29:56;;;;;;;0.60;0.60;;;13.60;99.90;;;;;;4992717;28;20514;-72
2021/10/12 13:32:22;;;;;;;2.03;1.00;;;13.60;99.90;;;;;;4992791;28;20840;-72
2021/10/12 13:34:50;;;;;;;1.27;0.50;;;13.60;99.90;;;;;;4993117;28;20928;-72
2021/10/12 13:37:16;;;;;;;0.60;0.60;;;13.60;99.90;;;;;;4991933;28;20474;-72
2021/10/12 13:39:44;;;;;;;1.23;0.87;;;13.60;99.90;;;;;;4992787;28;20455;-72
2021/10/12 13:42:12;;;;;;;1.07;0.80;;;13.60;99.90;;;;;;4992713;28;20561;-72
2021/10/12 13:44:39;;;;;;;2.77;0.83;;;13.50;99.90;;;;;;4992975;28;20505;-72
2021/10/12 13:47:08;;;;;;;1.17;0.60;;;13.40;99.90;;;;;;4992615;28;20521;-74
2021/10/12 13:49:35;;;;;;;0.97;0.90;;;13.40;99.90;;;;;;4992684;28;20984;-75
2021/10/12 13:52:03;;;;;;;1.20;0.50;;;13.30;99.90;;;;;;4991508;28;20856;-74
2021/10/12 13:54:32;;;;;;;1.13;1.13;;;13.20;99.90;;;;;;4992683;28;20486;-74
2021/10/12 13:56:58;;;;;;;2.13;0.77;;;13.10;99.90;;;;;;4992752;28;20462;-74
2021/10/12 13:59:25;;;;;;;1.43;0.80;;;13.20;99.90;;;;;;4992671;28;20466;-74
2021/10/12 14:01:53;;;;;;;0.77;0.77;;;13.20;99.90;;;;;;4992547;28;20585;-74
2021/10/12 14:04:21;;;;;;;1.03;0.60;;;13.20;99.90;;;;;;4991124;28;20953;-74
2021/10/12 14:06:48;;;;;;;0.63;0.60;;;13.20;99.90;;;;;;4991193;28;20494;-74
2021/10/12 14:09:15;;;;;;;1.00;0.63;;;13.30;99.90;;;;;;4973066;28;20621;-74
2021/10/12 14:11:42;;;;;;;3.60;1.20;;;13.20;99.90;;;;;;4973462;28;20869;-74
2021/10/12 14:14:10;;;;;;;3.03;0.70;;;13.30;99.90;;;;;;4972957;28;20464;-74
2021/10/12 14:16:37;;;;;;;0.87;0.70;;;13.30;99.90;;;;;;4972156;28;21005;-74
2021/10/12 14:19:04;;;;;;;1.17;0.77;;;13.30;99.90;;;;;;4972986;28;20881;-74
2021/10/12 14:21:32;;;;;;;1.03;1.03;;;13.20;99.90;;;;;;4973646;28;20557;-74
2021/10/12 14:23:59;;;;;;;1.70;1.50;;;13.20;99.90;;;;;;4973530;28;20542;-75
2021/10/12 14:26:25;;;;;;;2.77;0.90;;;13.10;99.90;;;;;;4973452;28;20507;-74
2021/10/12 14:28:52;;;;;;;2.47;0.77;;;13.10;99.90;;;;;;4973227;28;20464;-75
2021/10/12 14:31:19;;;;;;;1.47;0.70;;;13.10;99.90;;;;;;4973038;28;20554;-73
2021/10/12 14:33:46;;;;;;;2.30;0.93;;;13.10;99.90;;;;;;4972176;28;20583;-73
2021/10/12 14:36:13;;;;;;;3.17;0.87;;;13.10;99.90;;;;;;4972745;28;20502;-72
2021/10/12 14:38:41;;;;;;;1.23;0.90;;;13.10;99.90;;;;;;4973006;28;20467;-74
2021/10/12 14:41:07;;;;;;;0.87;0.87;;;13.10;99.90;;;;;;4975725;28;20479;-72
2021/10/12 14:43:36;;;;;;;0.80;0.80;;;13.10;99.90;;;;;;4976174;28;20530;-73
2021/10/12 14:46:03;;;;;;;1.50;0.70;;;13.20;99.90;;;;;;4976541;28;20508;-73
2021/10/12 14:48:30;;;;;;;1.73;1.33;;;13.10;99.90;;;;;;4976116;28;20472;-72
2021/10/12 14:50:56;;;;;;;1.13;0.73;;;13.10;99.90;;;;;;4976540;28;20487;-73
2021/10/12 14:53:23;;;;;;;1.47;0.90;;;13.00;99.90;;;;;;4975166;28;20523;-72
2021/10/12 14:55:51;;;;;;;1.07;0.83;;;12.80;99.90;;;;;;4976736;28;20491;-73
2021/10/12 14:58:18;;;;;;;0.57;0.50;;;12.60;99.90;;;;;;4976026;28;20488;-72
2021/10/12 15:00:45;;;;;;;1.08;0.90;;;12.30;99.90;;;;;;4976076;28;20239;-72
2021/10/12 15:03:11;;;;;;;1.25;0.70;;;12.10;99.90;;;;;;4976783;28;20291;-72
2021/10/12 15:05:38;;;;;;;2.38;1.00;;;12.00;99.90;;;;;;4978209;28;20208;-73
2021/10/12 15:08:05;;;;;;;2.15;0.90;;;11.90;99.90;;;;;;4977120;28;20209;-72
2021/10/12 15:10:32;;;;;;;0.60;0.60;;;11.90;99.90;;;;;;4976452;28;20287;-72
2021/10/12 15:13:00;;;;;;;1.30;0.70;;;11.90;99.90;;;;;;4975894;28;20204;-72
2021/10/12 15:15:27;;;;;;;1.65;1.33;;;11.90;99.90;;;;;;4976219;28;20606;-73
2021/10/12 15:17:53;;;;;;;1.05;1.05;;;11.90;99.90;;;;;;4976046;28;20246;-73
2021/10/12 15:20:20;;;;;;;3.25;2.17;;;11.90;99.90;;;;;;4975612;28;20208;-73
2021/10/12 15:22:47;;;;;;;1.17;1.15;;;11.90;99.90;;;;;;4974021;28;20225;-72
2021/10/12 15:25:15;;;;;;;2.53;0.88;;;11.90;99.90;;;;;;4975995;28;20300;-71
2021/10/12 15:27:44;;;;;;;3.65;1.25;;;11.90;99.90;;;;;;4975529;28;20213;-71
2021/10/12 15:30:14;;;;;;;1.00;1.00;;;11.90;99.90;;;;;;4975665;28;20212;-71
2021/10/12 15:32:43;;;;;;;1.08;1.08;;;11.90;99.90;;;;;;4975583;28;20291;-71
2021/10/12 15:35:10;;;;;;;1.10;1.10;;;12.00;99.90;;;;;;4975836;28;20208;-71
2021/10/12 15:37:37;;;;;;;2.08;1.38;;;11.90;99.90;;;;;;4974852;28;20204;-72
2021/10/12 15:40:04;;;;;;;0.70;0.70;;;11.90;99.90;;;;;;4975419;28;20216;-72
2021/10/12 15:42:31;;;;;;;0.80;0.80;;;11.80;99.90;;;;;;4974862;28;20232;-71
2021/10/12 15:44:57;;;;;;;1.15;1.13;;;11.80;99.90;;;;;;4975533;28;20254;-71
2021/10/12 15:47:25;;;;;;;1.20;0.98;;;11.80;99.90;;;;;;4975970;28;20586;-73
2021/10/12 15:49:52;;;;;;;1.92;1.73;;;11.70;99.90;;;;;;4975193;28;20209;-73
2021/10/12 15:52:20;;;;;;;3.38;1.75;;;11.70;99.90;;;;;;4974368;28;20229;-73
2021/10/12 15:54:47;;;;;;;0.70;0.70;;;11.60;99.90;;;;;;4974842;28;20262;-73
2021/10/12 15:57:15;;;;;;;0.63;0.63;;;11.30;99.90;;;;;;4974758;28;20623;-73
2021/10/12 15:59:45;;;;;;;1.98;0.60;;;11.10;99.90;;;;;;4974953;28;20234;-73
2021/10/12 16:02:12;;;;;;;0.70;0.70;;;10.90;99.90;;;;;;4974452;28;20327;-73
2021/10/12 16:04:40;;;;;;;1.35;1.25;;;10.80;99.90;;;;;;4974874;28;20217;-74
2021/10/12 16:07:08;;;;;;;0.60;0.60;;;10.70;99.90;;;;;;4973660;28;20267;-73
2021/10/12 16:09:35;;;;;;;1.38;0.95;;;10.50;99.90;;;;;;4974711;28;20259;-73
2021/10/12 16:12:05;;;;;;;2.58;1.33;;;10.30;99.90;;;;;;4974644;28;20291;-68
2021/10/12 16:20:07;;;;;;;1.35;1.35;;;10.20;99.90;;;;;;4974162;28;20211;-68
2021/10/12 16:22:34;;;;;;;1.00;1.00;;;10.20;99.90;;;;;;4974033;28;20618;-68
2021/10/12 16:25:01;;;;;;;2.22;1.20;;;10.20;99.90;;;;;;4980754;28;20208;-67
2021/10/12 16:27:27;;;;;;;1.13;1.02;;;10.20;99.90;;;;;;4994206;28;20311;-68
2021/10/12 16:29:54;;;;;;;1.60;1.60;;;10.20;99.90;;;;;;4993586;28;20245;-69
2021/10/12 16:32:21;;;;;;;1.45;1.35;;;10.10;99.90;;;;;;4993079;28;20327;-70
2021/10/12 16:34:53;;;;;;;1.20;1.15;;;10.00;99.90;;;;;;4993838;28;20215;-69
2021/10/12 16:37:21;;;;;;;2.78;1.25;;;10.00;99.90;;;;;;4992955;28;20256;-69
2021/10/12 16:39:49;;;;;;;2.17;1.25;;;10.00;99.90;;;;;;4993276;28;20262;-70
2021/10/12 16:42:16;;;;;;;2.03;1.95;;;9.90;99.90;;;;;;4992983;28;20285;-70
2021/10/12 16:44:43;;;;;;;1.08;0.98;;;9.90;99.90;;;;;;4993475;28;20239;-70
2021/10/12 16:47:10;;;;;;;1.30;1.30;;;9.90;99.90;;;;;;4993066;28;20211;-70
2021/10/12 16:49:37;;;;;;;1.35;1.20;;;9.80;99.90;;;;;;4994891;28;20262;-71
2021/10/12 16:52:07;;;;;;;1.60;1.50;;;9.70;99.90;;;;;;4993035;28;20305;-68
2021/10/12 16:54:35;;;;;;;1.67;1.35;;;9.70;99.90;;;;;;4993394;28;20586;-70
2021/10/12 16:57:01;;;;;;;1.73;1.73;;;9.60;99.90;;;;;;4986838;28;20216;-70
2021/10/12 16:59:31;;;;;;;1.95;1.75;;;9.60;99.90;;;;;;4973644;28;20212;-70
2021/10/12 17:01:58;;;;;;;2.55;2.35;;;9.50;99.90;;;;;;4973207;28;20236;-68
2021/10/12 17:04:26;;;;;;;4.03;1.90;;;9.50;99.90;;;;;;4972877;28;20243;-70